Impacts METAR Board
IDs:

KDFW - Dallas-Ft Worth Intl, TX, US

Updated at: 0300 UTC 17 Jul 2018
Potential Impact None Slight Moderate High
Time 16/15Z 16/16Z 16/17Z 16/18Z 16/19Z 16/20Z 16/21Z 16/22Z 16/23Z 17/00Z 17/01Z 17/02Z 17/03Z
Temp87 90 92 96 98 99 100 101 100 99 97 93 91
Dewpt71 71 70 69 66 65 64 62 62 61 62 62 62
Altim30.03 30.02 30.02 30.01 30.00 29.98 29.95 29.92 29.91 29.91 29.90 29.93 29.95
VIS8 8 9 9 10 10 10 10 10 10 10 10 10
CIG-- -- -- -- -- -- -- -- -- -- -- -- --
CoverFEWFEWFEWFEWFEWSCTSCTFEWFEWCLRCLRFEWCLR
FltCatVFRVFRVFRVFRVFRVFRVFRVFRVFRVFRVFRVFRVFR
WX--------------------------
WDir200190210000150220190170170110130
WSpd8 5 8 3 3 4 8 7 12 9 7 6 8
WGst-- -- -- -- -- -- -- -- -- -- -- -- --
Raw hourly METARs
KDFW 161453Z 20008KT 8SM FEW300 31/22 A3003 RMK AO2 SLP158 T03060217 51012
KDFW 161553Z 19005KT 8SM FEW300 32/22 A3002 RMK AO2 SLP156 T03220217
KDFW 161653Z 21008KT 9SM FEW300 33/21 A3002 RMK AO2 SLP156 T03330211
KDFW 161753Z COR VRB03KT 9SM FEW050 FEW300 36/21 A3001 RMK AO2 SLP151 T03560206 10356 20267 58006
KDFW 161853Z VRB03KT 10SM FEW060 37/19 A3000 RMK AO2 SLP147 T03670189
KDFW 161953Z VRB04KT 10SM SCT065 SCT190 37/18 A2998 RMK AO2 SLP140 T03720183
KDFW 162053Z 15008KT 10SM SCT075 38/18 A2995 RMK AO2 SLP132 T03780178 58019
KDFW 162153Z 22007KT 10SM FEW075 38/17 A2992 RMK AO2 SLP122 T03830167
KDFW 162253Z 19012KT 10SM FEW075 38/17 A2991 RMK AO2 SLP117 T03780167
KDFW 162353Z 17009KT 10SM CLR 37/16 A2991 RMK AO2 SLP116 T03720161 10383 20350 56015
KDFW 170053Z 17007KT 10SM CLR 36/17 A2990 RMK AO2 SLP116 T03610167
KDFW 170153Z 11006KT 10SM FEW300 34/17 A2993 RMK AO2 SLP123 T03390167
KDFW 170253Z 13008KT 10SM CLR 33/17 A2995 RMK AO2 SLP130 T03280167 53013



Page loaded:  03:44 UTC  |   08:44 PM Pacific  |   09:44 PM Mountain  |   10:44 PM Central  |   11:44 PM Eastern

 

ADVISORIES

FORECASTS

FORECASTS

OBSERVATIONS

USER TOOLS

ABOUT US